Time;durP1;ratioP1;P1;durP2;ratioP2;P2;SDS_P1;SDS_P2;PMS_P1;PMS_P2;Temp;Humidity;BMP_temperature;BMP_pressure;BME280_temperature;BME280_humidity;BME280_pressure;Samples;Min_cycle;Max_cycle;Signal;HPM_P1;HPM_P2
2022/04/23 04:01:09;;;;;;;21.90;17.77;;;;;;;;;;5670112;22;20893;-78
2022/04/23 04:03:34;;;;;;;22.03;15.90;;;1.80;96.30;;;;;;4994365;28;20413;-76
2022/04/23 04:06:00;;;;;;;19.07;15.97;;;1.80;96.30;;;;;;4994420;28;20189;-77
2022/04/23 04:08:26;;;;;;;19.13;14.53;;;1.80;96.30;;;;;;4993998;28;20170;-77
2022/04/23 04:10:51;;;;;;;22.23;17.63;;;1.80;96.30;;;;;;4994104;28;20208;-76
2022/04/23 04:13:17;;;;;;;21.13;16.97;;;2.00;96.30;;;;;;4976751;28;20196;-75
2022/04/23 04:15:43;;;;;;;21.47;18.10;;;2.10;96.30;;;;;;5000222;28;20280;-73
2022/04/23 04:18:10;;;;;;;21.50;16.80;;;2.00;96.30;;;;;;4984493;28;20189;-73
2022/04/23 04:20:36;;;;;;;24.10;16.90;;;2.10;96.30;;;;;;5003804;28;20441;-74
2022/04/23 04:23:02;;;;;;;23.20;18.00;;;2.20;96.30;;;;;;4985888;28;20504;-73
2022/04/23 04:25:28;;;;;;;19.37;16.10;;;2.20;96.30;;;;;;4997562;28;20484;-73
2022/04/23 04:27:54;;;;;;;19.50;16.10;;;2.40;96.30;;;;;;4993621;28;20177;-73
2022/04/23 04:30:19;;;;;;;22.57;17.60;;;2.50;96.30;;;;;;4976323;28;20593;-75
2022/04/23 04:32:45;;;;;;;22.80;16.67;;;2.70;96.30;;;;;;4993882;28;20264;-73
2022/04/23 04:35:10;;;;;;;22.80;17.00;;;2.80;96.30;;;;;;4993673;28;20328;-73
2022/04/23 04:37:36;;;;;;;21.07;16.43;;;3.10;96.30;;;;;;4993151;28;20174;-73
2022/04/23 04:40:03;;;;;;;18.60;15.90;;;3.50;96.30;;;;;;4993668;28;20219;-73
2022/04/23 04:42:29;;;;;;;19.67;16.90;;;3.90;96.30;;;;;;4993560;28;20947;-73
2022/04/23 04:44:55;;;;;;;20.27;17.33;;;;;;;;;;4993724;28;20423;-73
2022/04/23 04:47:21;;;;;;;21.03;17.80;;;4.90;96.30;;;;;;4993623;28;20424;-73
2022/04/23 04:49:46;;;;;;;19.70;15.57;;;5.30;96.30;;;;;;4993081;28;20209;-73
2022/04/23 04:52:12;;;;;;;16.27;13.90;;;5.50;96.30;;;;;;4993449;28;20233;-76
2022/04/23 04:54:38;;;;;;;16.80;13.70;;;5.90;96.30;;;;;;4993294;28;20616;-73
2022/04/23 04:57:03;;;;;;;15.30;13.07;;;6.10;96.30;;;;;;4978757;28;20178;-73
2022/04/23 04:59:33;;;;;;;15.47;13.57;;;6.30;96.30;;;;;;4973292;28;20202;-73
2022/04/23 05:02:00;;;;;;;17.53;14.00;;;6.40;96.30;;;;;;4973653;28;20206;-74
2022/04/23 05:04:25;;;;;;;13.90;12.47;;;6.50;96.30;;;;;;4973643;28;20442;-73
2022/04/23 05:06:51;;;;;;;15.60;13.60;;;;;;;;;;4973624;28;20468;-77
2022/04/23 05:09:17;;;;;;;14.30;12.77;;;6.60;96.30;;;;;;4955756;28;20650;-77
2022/04/23 05:11:42;;;;;;;16.97;13.00;;;7.00;96.30;;;;;;4973587;28;20252;-76
2022/04/23 05:14:08;;;;;;;16.00;12.30;;;7.30;96.30;;;;;;4956296;28;20656;-77
2022/04/23 05:16:33;;;;;;;14.60;12.03;;;7.70;96.30;;;;;;4973659;28;20174;-78
2022/04/23 05:18:59;;;;;;;13.80;12.00;;;7.90;96.30;;;;;;4978711;28;20627;-77
2022/04/23 05:21:24;;;;;;;12.77;10.67;;;7.70;96.30;;;;;;4982359;28;20198;-78
2022/04/23 05:23:50;;;;;;;14.30;11.27;;;7.70;96.30;;;;;;4975437;28;20192;-77
2022/04/23 05:26:15;;;;;;;17.87;11.77;;;7.30;96.30;;;;;;4993027;28;20650;-78
2022/04/23 05:28:41;;;;;;;13.03;11.63;;;7.00;96.30;;;;;;4992626;28;20268;-77
2022/04/23 05:31:08;;;;;;;14.63;11.73;;;7.00;96.30;;;;;;4975462;28;20701;-77
2022/04/23 05:33:35;;;;;;;14.10;11.40;;;;;;;;;;4993136;28;20192;-77
2022/04/23 05:36:01;;;;;;;11.70;10.60;;;7.10;96.30;;;;;;4993005;28;20455;-77
2022/04/23 05:38:27;;;;;;;14.47;12.57;;;;;;;;;;4974776;28;20765;-77
2022/04/23 05:40:52;;;;;;;13.70;12.30;;;7.80;96.30;;;;;;4987738;28;20202;-77
2022/04/23 05:43:18;;;;;;;13.63;12.30;;;;;;;;;;4967334;28;20417;-76
2022/04/23 05:45:44;;;;;;;15.13;13.50;;;;;;;;;;4962268;28;20654;-77
2022/04/23 05:48:10;;;;;;;12.53;10.90;;;10.70;96.30;;;;;;4973227;28;20206;-77
2022/04/23 05:50:35;;;;;;;10.70;9.63;;;11.80;96.30;;;;;;4974369;28;20461;-78
2022/04/23 05:53:01;;;;;;;13.70;10.00;;;12.70;96.30;;;;;;4973044;28;20266;-78
2022/04/23 05:55:26;;;;;;;10.27;8.70;;;13.30;96.30;;;;;;4973242;28;20251;-78
2022/04/23 05:57:52;;;;;;;9.40;8.43;;;14.50;96.30;;;;;;4972664;28;20174;-77
2022/04/23 06:00:18;;;;;;;10.43;8.20;;;14.00;96.30;;;;;;4973007;28;20178;-78
2022/04/23 06:02:44;;;;;;;9.20;8.30;;;14.60;96.30;;;;;;4973101;28;20579;-78
2022/04/23 06:05:10;;;;;;;8.77;7.87;;;14.60;96.30;;;;;;4973118;28;20417;-77
2022/04/23 06:07:36;;;;;;;8.53;7.60;;;15.10;96.30;;;;;;4973097;28;20700;-78
2022/04/23 06:10:02;;;;;;;9.33;8.37;;;14.70;96.30;;;;;;4972870;28;20480;-76
2022/04/23 06:12:28;;;;;;;8.07;7.27;;;14.70;96.30;;;;;;4973348;28;20502;-78
2022/04/23 06:14:53;;;;;;;7.63;6.77;;;15.00;96.20;;;;;;4974099;28;20457;-79
2022/04/23 06:17:27;;;;;;;8.37;7.57;;;14.90;95.20;;;;;;4977083;28;20642;-80
2022/04/23 06:19:53;;;;;;;8.07;7.27;;;14.70;96.30;;;;;;4976955;28;20506;-79
2022/04/23 06:22:19;;;;;;;8.40;7.60;;;14.50;96.30;;;;;;4976705;28;20430;-78
2022/04/23 06:24:46;;;;;;;7.80;7.00;;;14.50;96.30;;;;;;4987166;28;20507;-78
2022/04/23 06:27:11;;;;;;;7.90;7.20;;;14.40;96.30;;;;;;4981791;28;20825;-77
2022/04/23 06:29:38;;;;;;;7.90;7.10;;;14.20;96.30;;;;;;4975228;28;20457;-77
2022/04/23 06:32:04;;;;;;;9.43;6.80;;;15.20;96.20;;;;;;4975627;28;20786;-76
2022/04/23 06:34:30;;;;;;;8.67;7.83;;;16.30;92.50;;;;;;4975734;28;20506;-77
2022/04/23 06:36:56;;;;;;;8.40;6.70;;;;;;;;;;4976530;28;20433;-78
2022/04/23 06:39:21;;;;;;;7.43;6.73;;;13.20;96.30;;;;;;4976369;28;20182;-79
2022/04/23 06:41:47;;;;;;;9.57;6.80;;;12.10;96.30;;;;;;4959321;28;20206;-79
2022/04/23 06:44:13;;;;;;;7.93;7.13;;;12.60;96.30;;;;;;4976404;28;20174;-78
2022/04/23 06:46:38;;;;;;;9.70;8.20;;;11.60;96.30;;;;;;4976806;28;20249;-79
2022/04/23 06:49:07;;;;;;;7.40;6.33;;;10.30;96.30;;;;;;4980929;28;20236;-78
2022/04/23 06:51:33;;;;;;;7.43;6.27;;;10.10;96.30;;;;;;4995962;28;20201;-78
2022/04/23 06:53:59;;;;;;;8.37;7.50;;;10.50;96.30;;;;;;4996439;28;20417;-75
2022/04/23 06:56:26;;;;;;;7.90;7.10;;;11.10;96.30;;;;;;4996989;28;20409;-77
2022/04/23 06:58:52;;;;;;;6.93;5.83;;;;;;;;;;4993986;28;20181;-77
2022/04/23 07:01:18;;;;;;;8.03;6.57;;;;;;;;;;4977293;28;20441;-78
2022/04/23 07:03:43;;;;;;;7.80;6.43;;;12.70;96.30;;;;;;4977252;28;20816;-77
2022/04/23 07:06:10;;;;;;;5.13;4.47;;;12.20;96.30;;;;;;4962676;28;20425;-78
2022/04/23 07:08:35;;;;;;;6.60;5.00;;;13.30;96.30;;;;;;4981817;28;20530;-78
2022/04/23 07:11:00;;;;;;;4.37;3.97;;;14.00;94.50;;;;;;4976763;28;20433;-76
2022/04/23 07:13:26;;;;;;;7.13;5.60;;;14.70;93.80;;;;;;4977260;28;20183;-77
2022/04/23 07:15:51;;;;;;;6.20;4.93;;;14.70;92.70;;;;;;4976905;28;20257;-77
2022/04/23 07:18:17;;;;;;;5.80;4.40;;;14.50;92.10;;;;;;4987023;28;20181;-77
2022/04/23 07:20:43;;;;;;;5.90;4.33;;;;;;;;;;4985341;28;20209;-80
2022/04/23 07:25:54;;;;;;;6.20;3.97;;;14.70;91.10;;;;;;4983558;28;20656;-77
2022/04/23 07:28:22;;;;;;;4.80;4.27;;;;;;;;;;4988777;28;20514;-76
2022/04/23 07:30:48;;;;;;;5.30;4.17;;;12.80;93.50;;;;;;4982638;28;20500;-76
2022/04/23 07:37:28;;;;;;;4.67;4.13;;;;;;;;;;4989514;28;20429;-80
2022/04/23 07:38:44;;;;;;;3.73;3.20;;;13.10;95.20;;;;;;5012472;28;20443;-82
2022/04/23 07:41:11;;;;;;;3.67;3.37;;;13.30;93.10;;;;;;5016031;28;20481;-78
2022/04/23 07:43:37;;;;;;;4.17;3.70;;;12.90;94.30;;;;;;4981502;28;20201;-75
2022/04/23 07:46:02;;;;;;;5.33;3.53;;;12.50;95.10;;;;;;4975906;28;20875;-74
2022/04/23 07:48:38;;;;;;;4.23;3.80;;;13.20;96.10;;;;;;4975387;28;20182;-74
2022/04/23 07:51:04;;;;;;;4.50;3.70;;;14.20;91.50;;;;;;4984845;28;20291;-75
2022/04/23 07:53:29;;;;;;;3.30;3.00;;;14.50;87.40;;;;;;4981413;28;20617;-74
2022/04/23 07:55:55;;;;;;;6.40;4.87;;;13.00;91.50;;;;;;4986986;28;20206;-75
2022/04/23 07:58:21;;;;;;;6.27;5.03;;;12.80;95.40;;;;;;4985234;28;20273;-77
2022/04/23 08:00:46;;;;;;;4.97;3.57;;;13.00;94.20;;;;;;4957698;28;20284;-75
2022/04/23 08:03:12;;;;;;;5.00;4.03;;;13.50;93.30;;;;;;4980661;28;20190;-75
2022/04/23 08:05:38;;;;;;;5.43;4.93;;;13.30;92.30;;;;;;4986296;28;20182;-75
2022/04/23 08:08:04;;;;;;;10.93;5.70;;;13.80;91.70;;;;;;4976388;28;20429;-76
2022/04/23 08:10:29;;;;;;;7.30;5.17;;;14.10;91.30;;;;;;4975128;28;20184;-75
2022/04/23 08:12:56;;;;;;;4.87;4.37;;;;;;;;;;4975994;28;20507;-75
2022/04/23 08:15:22;;;;;;;4.30;3.90;;;14.40;90.30;;;;;;4980457;28;20205;-75
2022/04/23 08:17:48;;;;;;;4.43;4.03;;;14.00;90.30;;;;;;4988248;28;20524;-74
2022/04/23 08:20:13;;;;;;;6.83;4.57;;;14.10;90.50;;;;;;4984349;28;20429;-76
2022/04/23 08:22:39;;;;;;;4.87;4.40;;;14.80;87.90;;;;;;4980046;28;20209;-74
2022/04/23 08:25:05;;;;;;;5.30;4.80;;;14.40;88.00;;;;;;4974510;28;20216;-74
2022/04/23 08:27:30;;;;;;;4.40;3.57;;;14.10;89.10;;;;;;4993223;28;20225;-76
2022/04/23 08:32:40;;;;;;;2.97;2.67;;;13.10;87.70;;;;;;4994279;28;20213;-74
2022/04/23 08:35:06;;;;;;;4.60;3.10;;;13.40;88.30;;;;;;4993969;28;20452;-75
2022/04/23 08:37:34;;;;;;;5.40;2.40;;;13.50;86.40;;;;;;4991739;28;20542;-75
2022/04/23 08:40:00;;;;;;;3.20;2.57;;;;;;;;;;4993923;28;20412;-74
2022/04/23 08:42:26;;;;;;;3.07;2.50;;;13.60;84.30;;;;;;4976259;28;20429;-74
2022/04/23 08:44:54;;;;;;;3.87;2.20;;;13.40;85.70;;;;;;4976168;28;20431;-74
2022/04/23 08:47:24;;;;;;;3.13;2.63;;;13.60;84.50;;;;;;4993613;28;20173;-77
2022/04/23 08:49:56;;;;;;;2.60;2.40;;;14.50;84.20;;;;;;4976004;28;20506;-74
2022/04/23 08:52:31;;;;;;;3.00;2.70;;;14.90;81.70;;;;;;4993557;28;20492;-74
2022/04/23 08:54:59;;;;;;;3.37;3.07;;;14.80;78.60;;;;;;4993507;28;20452;-75
2022/04/23 08:57:25;;;;;;;4.17;2.60;;;;;;;;;;4975892;28;20499;-79
2022/04/23 08:59:53;;;;;;;2.10;1.97;;;14.80;78.40;;;;;;4993460;28;20496;-74
2022/04/23 09:02:19;;;;;;;6.00;2.20;;;15.40;79.00;;;;;;4993435;28;20637;-76
2022/04/23 09:04:44;;;;;;;2.80;2.10;;;15.60;77.90;;;;;;4993333;28;20428;-74
2022/04/23 09:07:21;;;;;;;3.43;1.87;;;15.20;74.70;;;;;;4993374;28;20229;-75
2022/04/23 09:09:51;;;;;;;1.90;1.80;;;15.70;74.60;;;;;;4993272;28;20216;-74
2022/04/23 09:12:17;;;;;;;2.27;2.07;;;15.50;72.30;;;;;;4993278;28;20826;-74
2022/04/23 09:14:46;;;;;;;2.90;2.00;;;14.40;74.00;;;;;;4993867;28;20476;-77
2022/04/23 09:25:39;;;;;;;3.63;2.40;;;;;;;;;;4993403;28;20443;-74
2022/04/23 09:28:14;;;;;;;3.10;2.10;;;15.10;73.70;;;;;;4975445;28;20451;-74
2022/04/23 09:30:40;;;;;;;2.30;2.10;;;14.70;76.40;;;;;;4992892;28;20514;-74
2022/04/23 09:33:06;;;;;;;2.37;2.17;;;;;;;;;;4993043;28;20471;-74
2022/04/23 09:35:32;;;;;;;2.33;1.97;;;;;;;;;;4993221;28;20879;-74
2022/04/23 09:38:14;;;;;;;2.40;2.20;;;;;;;;;;4992693;28;20273;-74
2022/04/23 09:40:40;;;;;;;3.40;2.07;;;;;;;;;;4993360;28;20280;-74
2022/04/23 09:43:08;;;;;;;2.97;2.10;;;13.90;75.30;;;;;;4975408;28;20440;-74
2022/04/23 09:45:39;;;;;;;4.17;2.20;;;14.30;76.40;;;;;;4993883;28;20504;-77
2022/04/23 09:48:24;;;;;;;2.87;2.30;;;14.30;74.60;;;;;;4993253;28;20500;-76
2022/04/23 09:50:51;;;;;;;2.30;2.10;;;;;;;;;;4991523;28;20542;-76
2022/04/23 09:53:20;;;;;;;2.13;1.93;;;13.90;75.70;;;;;;4992733;28;20413;-77
2022/04/23 09:55:47;;;;;;;3.33;2.37;;;;;;;;;;4992715;28;20468;-76
2022/04/23 09:58:14;;;;;;;2.00;1.80;;;14.50;77.10;;;;;;4992360;28;20417;-76
2022/04/23 10:00:41;;;;;;;2.17;1.80;;;13.80;74.80;;;;;;4974733;28;20456;-76
2022/04/23 10:03:08;;;;;;;2.30;1.90;;;14.20;77.20;;;;;;4992969;28;20915;-75
2022/04/23 10:05:48;;;;;;;2.90;2.60;;;14.30;73.80;;;;;;4993402;28;20435;-77
2022/04/23 10:08:16;;;;;;;1.47;1.37;;;14.40;73.90;;;;;;4975716;28;20424;-77
2022/04/23 10:11:15;;;;;;;2.40;2.20;;;14.50;76.20;;;;;;4975232;28;20871;-77
2022/04/23 10:13:46;;;;;;;2.10;1.90;;;15.10;75.50;;;;;;4992662;28;20448;-78
2022/04/23 10:16:13;;;;;;;2.27;2.07;;;14.70;75.90;;;;;;4993408;28;20475;-76
2022/04/23 10:18:39;;;;;;;1.97;1.83;;;14.90;74.20;;;;;;4992644;28;20409;-77
2022/04/23 13:09:41;;;;;;;1.40;1.30;;;;;;;;;;4993151;28;20415;-73
2022/04/23 13:12:08;;;;;;;1.70;1.20;;;17.70;64.50;;;;;;4970328;28;20969;-74
2022/04/23 13:14:33;;;;;;;2.30;1.60;;;;;;;;;;4950414;28;20214;-72
2022/04/23 13:16:59;;;;;;;1.43;1.30;;;17.20;65.00;;;;;;4958088;28;21605;-74
2022/04/23 13:19:24;;;;;;;1.93;1.70;;;16.90;64.70;;;;;;4953854;29;20179;-74
2022/04/23 13:21:50;;;;;;;1.53;1.40;;;17.10;66.00;;;;;;4954234;29;20199;-76
2022/04/23 13:24:16;;;;;;;1.97;1.50;;;17.00;65.20;;;;;;4954199;28;20174;-73
2022/04/23 13:26:42;;;;;;;1.33;1.23;;;;;;;;;;4954370;29;20691;-73
2022/04/23 13:29:08;;;;;;;1.90;1.67;;;;;;;;;;4953921;29;20507;-76
2022/04/23 13:31:39;;;;;;;2.20;1.10;;;16.80;66.50;;;;;;4954185;29;20457;-75
2022/04/23 13:34:04;;;;;;;1.83;1.13;;;16.60;66.60;;;;;;4937054;29;20930;-75
2022/04/23 13:36:30;;;;;;;1.93;1.70;;;16.90;67.10;;;;;;4936804;29;20553;-76
2022/04/23 13:38:55;;;;;;;2.40;2.00;;;17.00;66.30;;;;;;4953717;29;20209;-74
2022/04/23 13:41:22;;;;;;;2.33;1.60;;;17.00;65.70;;;;;;4954195;29;20242;-74
2022/04/23 13:43:48;;;;;;;3.27;2.97;;;16.60;66.60;;;;;;4954151;28;20171;-74
2022/04/23 13:46:15;;;;;;;3.07;2.50;;;16.50;66.60;;;;;;4948539;28;20426;-74
2022/04/23 13:48:41;;;;;;;2.87;2.33;;;;;;;;;;4965637;28;20436;-74
2022/04/23 13:51:07;;;;;;;2.07;1.93;;;16.70;65.50;;;;;;4969744;28;20784;-75
2022/04/23 13:53:33;;;;;;;2.23;2.07;;;17.20;67.50;;;;;;4937030;29;20175;-75
2022/04/23 13:55:58;;;;;;;1.77;1.60;;;17.40;64.90;;;;;;4954805;28;20468;-75
2022/04/23 13:58:24;;;;;;;3.07;2.00;;;17.00;64.50;;;;;;4972730;28;20409;-75
2022/04/23 14:00:49;;;;;;;2.23;2.03;;;16.90;67.10;;;;;;4970990;28;20198;-74
2022/04/23 14:11:27;;;;;;;4.20;1.70;;;16.80;65.30;;;;;;4972738;28;20588;-74
2022/04/23 14:13:53;;;;;;;3.47;2.10;;;;;;;;;;4972973;28;20961;-75
2022/04/23 14:16:19;;;;;;;1.93;1.73;;;16.90;66.60;;;;;;4972866;28;20213;-74
2022/04/23 14:18:45;;;;;;;1.33;1.20;;;16.70;66.50;;;;;;4955338;28;20182;-75
2022/04/23 14:21:10;;;;;;;1.60;1.30;;;16.80;65.10;;;;;;4961956;28;20570;-74
2022/04/23 14:23:36;;;;;;;1.50;1.40;;;16.40;64.90;;;;;;4953327;29;20175;-74
2022/04/23 14:26:01;;;;;;;1.90;1.50;;;16.80;66.50;;;;;;4957441;28;20301;-75
2022/04/23 14:28:27;;;;;;;1.90;1.60;;;;;;;;;;4952808;29;20187;-74
2022/04/23 14:30:53;;;;;;;2.03;1.33;;;17.00;67.60;;;;;;4967880;28;20198;-73
2022/04/23 14:33:18;;;;;;;1.60;1.50;;;17.20;65.90;;;;;;4972643;28;20977;-74
2022/04/23 14:35:44;;;;;;;1.50;1.40;;;17.10;65.90;;;;;;4973415;28;20206;-74
2022/04/23 14:38:09;;;;;;;1.40;1.27;;;17.10;64.60;;;;;;4968872;28;20187;-75
2022/04/23 14:40:37;;;;;;;1.97;1.53;;;16.80;68.00;;;;;;4970918;28;20202;-75
2022/04/23 14:43:02;;;;;;;1.47;1.20;;;16.90;66.60;;;;;;4973589;28;20549;-74
2022/04/23 14:45:30;;;;;;;1.60;1.20;;;;;;;;;;4976238;28;20421;-73
2022/04/23 14:47:56;;;;;;;1.60;1.50;;;17.00;66.40;;;;;;4971556;28;20189;-72
2022/04/23 14:50:22;;;;;;;2.57;1.20;;;16.80;68.30;;;;;;4962138;28;20824;-72
2022/04/23 14:55:32;;;;;;;1.50;1.40;;;17.10;65.60;;;;;;4956648;29;20477;-72
2022/04/23 14:57:57;;;;;;;1.40;1.30;;;16.80;66.10;;;;;;4956458;29;20410;-72
2022/04/23 15:00:23;;;;;;;2.37;1.77;;;16.40;68.00;;;;;;4939334;29;20453;-72
2022/04/23 15:02:51;;;;;;;2.30;1.30;;;16.30;67.10;;;;;;4963836;28;20178;-72
2022/04/23 15:05:16;;;;;;;1.70;1.27;;;16.50;67.10;;;;;;4956829;28;20201;-74
2022/04/23 15:07:42;;;;;;;2.03;1.30;;;16.70;66.90;;;;;;4956306;29;20934;-73
2022/04/23 15:10:07;;;;;;;1.40;1.30;;;16.60;66.90;;;;;;4956601;29;20190;-73
2022/04/23 15:12:33;;;;;;;2.60;1.00;;;16.60;66.90;;;;;;4956456;29;20298;-73
2022/04/23 15:14:58;;;;;;;1.70;1.40;;;16.40;68.30;;;;;;4967263;28;20293;-73
2022/04/23 15:17:26;;;;;;;2.90;1.43;;;16.40;66.50;;;;;;4975630;28;20175;-72
2022/04/23 15:19:51;;;;;;;1.73;1.00;;;16.50;66.70;;;;;;4975708;28;20245;-72
2022/04/23 15:22:17;;;;;;;1.40;1.30;;;16.70;66.10;;;;;;4975620;28;20518;-73
2022/04/23 15:24:42;;;;;;;1.30;1.07;;;16.90;66.80;;;;;;4975767;28;20181;-72
2022/04/23 15:27:09;;;;;;;2.43;1.37;;;16.80;66.80;;;;;;4975620;28;20582;-72
2022/04/23 15:29:35;;;;;;;2.70;1.30;;;16.80;65.70;;;;;;4952042;29;20186;-74
2022/04/23 15:32:00;;;;;;;1.80;1.60;;;16.80;67.70;;;;;;4956119;29;20497;-74
2022/04/23 15:34:25;;;;;;;2.27;1.33;;;16.50;66.50;;;;;;4956158;29;20181;-74
2022/04/23 15:36:51;;;;;;;1.63;0.97;;;16.60;66.70;;;;;;4956823;28;20179;-73
2022/04/23 15:39:16;;;;;;;2.73;2.10;;;16.50;67.50;;;;;;4975084;28;20668;-75
2022/04/23 15:41:42;;;;;;;1.10;1.00;;;16.60;66.30;;;;;;4975303;28;20195;-75
2022/04/23 15:44:08;;;;;;;4.33;1.30;;;;;;;;;;4975346;28;20178;-74
2022/04/23 15:46:34;;;;;;;1.50;1.00;;;16.30;65.00;;;;;;4975107;28;20182;-74
2022/04/23 15:48:59;;;;;;;2.47;1.10;;;16.20;65.30;;;;;;4974260;28;20837;-75
2022/04/23 15:51:25;;;;;;;1.50;1.20;;;16.20;65.80;;;;;;4974998;28;20425;-74
2022/04/23 15:53:51;;;;;;;2.90;1.50;;;16.20;65.30;;;;;;4946199;29;20221;-73
2022/04/23 15:56:17;;;;;;;4.27;2.60;;;16.20;66.10;;;;;;4957707;28;20214;-73
2022/04/23 15:58:43;;;;;;;2.63;2.17;;;;;;;;;;4956125;28;20792;-73
2022/04/23 16:01:09;;;;;;;1.40;1.27;;;16.00;66.90;;;;;;4955613;29;20191;-74
2022/04/23 16:03:34;;;;;;;1.60;1.40;;;16.10;67.20;;;;;;4955359;29;20163;-74
2022/04/23 16:06:02;;;;;;;1.60;1.20;;;16.20;67.90;;;;;;4955176;29;20179;-73
2022/04/23 16:08:28;;;;;;;3.40;2.60;;;15.80;68.70;;;;;;4938108;29;20194;-73
2022/04/23 16:10:53;;;;;;;3.37;1.60;;;16.00;67.10;;;;;;4955007;29;20438;-73
2022/04/23 16:13:19;;;;;;;1.60;1.30;;;16.20;67.50;;;;;;4955627;29;20429;-75
2022/04/23 16:15:45;;;;;;;1.70;1.40;;;16.30;67.80;;;;;;4956121;29;20213;-73
2022/04/23 16:18:11;;;;;;;1.57;1.10;;;15.90;67.40;;;;;;4955894;29;20193;-73
2022/04/23 16:20:36;;;;;;;1.20;1.00;;;15.80;67.50;;;;;;4956232;29;20222;-74
2022/04/23 16:23:03;;;;;;;2.80;1.13;;;15.90;66.60;;;;;;4940517;28;20175;-73
2022/04/23 16:25:29;;;;;;;1.20;1.10;;;15.70;68.10;;;;;;4955324;28;20225;-76
2022/04/23 16:27:55;;;;;;;2.17;1.50;;;15.50;74.20;;;;;;4940330;29;20426;-74
2022/04/23 16:30:21;;;;;;;2.20;1.53;;;15.30;76.80;;;;;;4955196;29;20556;-74
2022/04/23 16:32:47;;;;;;;2.53;1.97;;;;;;;;;;4955249;29;20465;-75
2022/04/23 16:35:13;;;;;;;2.60;2.03;;;15.30;79.40;;;;;;4955076;29;20950;-74
2022/04/23 16:48:36;;;;;;;2.57;2.00;;;14.60;81.50;;;;;;4954144;28;20485;-73
2022/04/23 16:51:03;;;;;;;2.40;2.20;;;14.60;81.80;;;;;;4963038;28;20813;-73
2022/04/23 16:53:29;;;;;;;3.90;2.53;;;14.50;82.50;;;;;;4950537;29;20175;-74
2022/04/23 16:55:54;;;;;;;3.27;2.63;;;14.40;83.10;;;;;;4953880;28;20530;-75
2022/04/23 16:58:20;;;;;;;3.37;2.70;;;14.40;84.20;;;;;;4963176;28;20178;-75
2022/04/23 17:00:46;;;;;;;3.00;2.73;;;14.20;85.50;;;;;;4973308;28;20541;-73
2022/04/23 17:03:11;;;;;;;4.63;2.83;;;14.00;86.60;;;;;;4968436;28;20266;-76
2022/04/23 17:05:38;;;;;;;5.53;3.20;;;14.00;87.70;;;;;;4969956;28;20210;-77
2022/04/23 17:08:04;;;;;;;4.17;3.30;;;13.90;88.20;;;;;;4973194;28;20194;-75
2022/04/23 17:10:30;;;;;;;6.47;2.90;;;13.80;88.50;;;;;;4973779;28;20437;-77
2022/04/23 17:12:55;;;;;;;4.17;3.77;;;13.80;88.50;;;;;;4973787;28;20885;-76
2022/04/23 17:15:21;;;;;;;3.53;3.23;;;13.80;88.70;;;;;;4973686;28;20194;-76
2022/04/23 17:17:47;;;;;;;3.40;3.10;;;13.60;89.20;;;;;;4972424;28;20258;-74
2022/04/23 17:20:12;;;;;;;7.00;3.10;;;13.40;89.60;;;;;;4967402;28;20630;-76
2022/04/23 17:22:40;;;;;;;3.33;3.03;;;13.30;90.00;;;;;;4972164;28;20194;-75
2022/04/23 17:25:06;;;;;;;3.20;2.90;;;13.30;90.30;;;;;;4956705;28;20191;-76
2022/04/23 17:27:32;;;;;;;3.57;3.23;;;13.20;90.40;;;;;;4953643;29;20472;-76
2022/04/23 17:29:59;;;;;;;4.57;2.90;;;13.20;90.90;;;;;;4969041;28;20414;-75
2022/04/23 17:32:24;;;;;;;4.40;3.40;;;13.00;91.70;;;;;;4973399;28;20429;-77
2022/04/23 17:34:50;;;;;;;4.30;3.50;;;13.00;91.80;;;;;;4973316;28;20515;-77
2022/04/23 17:37:15;;;;;;;3.97;3.57;;;12.90;92.60;;;;;;4969601;28;20186;-79
2022/04/23 17:39:41;;;;;;;2.80;2.60;;;12.80;92.70;;;;;;4955608;28;20213;-77
2022/04/23 17:42:06;;;;;;;3.73;3.33;;;12.70;93.30;;;;;;4953112;28;20230;-77
2022/04/23 17:44:32;;;;;;;4.37;3.40;;;12.60;93.60;;;;;;4945713;29;20226;-78
2022/04/23 17:46:58;;;;;;;3.10;2.80;;;12.50;94.00;;;;;;4954160;29;20627;-77
2022/04/23 17:49:23;;;;;;;4.10;3.73;;;12.50;94.00;;;;;;4965294;28;20182;-77
2022/04/23 17:51:49;;;;;;;4.10;3.70;;;12.40;94.30;;;;;;4973203;28;20513;-77
2022/04/23 17:54:15;;;;;;;13.50;3.60;;;12.30;94.50;;;;;;4973321;28;20650;-76
2022/04/23 17:56:41;;;;;;;8.93;3.00;;;12.10;94.90;;;;;;4955769;28;20214;-77
2022/04/23 17:59:06;;;;;;;4.00;3.60;;;12.10;94.70;;;;;;4973080;28;20631;-77
2022/04/23 18:09:45;;;;;;;7.87;4.47;;;11.70;96.30;;;;;;4973265;28;20453;-75
2022/04/23 18:12:11;;;;;;;5.00;4.47;;;11.70;96.30;;;;;;4974988;28;20433;-77
2022/04/23 18:14:38;;;;;;;5.37;3.93;;;11.60;96.30;;;;;;4964230;28;20189;-75
2022/04/23 18:17:04;;;;;;;4.97;3.80;;;11.50;96.30;;;;;;4967608;28;20178;-76
2022/04/23 18:19:31;;;;;;;3.83;3.40;;;11.50;96.30;;;;;;4968966;28;20849;-74
2022/04/23 18:21:57;;;;;;;6.43;4.10;;;11.40;96.30;;;;;;4966049;28;20432;-76
2022/04/23 18:24:25;;;;;;;5.33;4.57;;;11.30;96.30;;;;;;4947208;28;20406;-76
2022/04/23 18:26:51;;;;;;;5.20;4.53;;;;;;;;;;4949460;28;20182;-76
2022/04/23 18:29:16;;;;;;;5.20;4.00;;;11.00;96.30;;;;;;4948778;28;20398;-75
2022/04/23 18:31:42;;;;;;;6.83;5.30;;;;;;;;;;4974265;28;20565;-77
2022/04/23 18:34:08;;;;;;;4.63;4.13;;;10.90;96.30;;;;;;4976067;28;20249;-76
2022/04/23 18:36:33;;;;;;;8.40;4.50;;;10.90;96.30;;;;;;4976723;28;20214;-77
2022/04/23 18:38:59;;;;;;;4.43;4.00;;;10.90;96.30;;;;;;4976367;28;20225;-77
2022/04/23 18:41:25;;;;;;;4.50;4.10;;;10.70;96.30;;;;;;4959294;28;20197;-76
2022/04/23 18:43:51;;;;;;;4.37;3.97;;;10.60;96.30;;;;;;4976677;28;20182;-76
2022/04/23 18:46:17;;;;;;;5.23;4.40;;;;;;;;;;4967850;28;20843;-76
2022/04/23 18:48:43;;;;;;;5.13;4.33;;;10.60;96.30;;;;;;4967533;28;20418;-75
2022/04/23 18:51:09;;;;;;;4.23;3.60;;;10.50;96.30;;;;;;4967586;28;20689;-76
2022/04/23 18:53:35;;;;;;;5.00;4.53;;;10.50;96.30;;;;;;4961827;28;20942;-75
2022/04/23 18:56:03;;;;;;;8.10;4.77;;;10.40;96.30;;;;;;4975409;28;20806;-74
2022/04/23 18:58:28;;;;;;;6.53;4.83;;;10.40;96.30;;;;;;4975456;28;20413;-75
2022/04/23 19:00:58;;;;;;;4.10;3.60;;;10.30;96.30;;;;;;4975687;28;20782;-76
2022/04/23 19:03:25;;;;;;;6.23;3.97;;;10.20;96.30;;;;;;4975916;28;20529;-75
2022/04/23 19:05:51;;;;;;;4.87;4.43;;;10.20;96.30;;;;;;4975927;28;20428;-75
2022/04/23 19:08:17;;;;;;;4.07;3.67;;;10.10;96.30;;;;;;4974860;28;20437;-73
2022/04/23 19:10:43;;;;;;;7.47;4.87;;;10.10;96.30;;;;;;4958541;28;20252;-73
2022/04/23 19:13:09;;;;;;;4.30;3.90;;;10.00;96.30;;;;;;4975727;28;20425;-73
2022/04/23 19:15:35;;;;;;;5.53;4.43;;;10.00;96.30;;;;;;4975833;28;20449;-73
2022/04/23 19:18:01;;;;;;;5.20;4.70;;;9.90;96.30;;;;;;4957809;28;20433;-73
2022/04/23 19:20:27;;;;;;;5.97;5.17;;;9.90;96.30;;;;;;4975507;28;20162;-73
2022/04/23 19:28:22;;;;;;;5.33;4.83;;;9.60;96.30;;;;;;4974850;28;20771;-72
2022/04/23 19:30:48;;;;;;;5.50;5.00;;;9.60;96.30;;;;;;4975611;28;20845;-73
2022/04/23 19:33:14;;;;;;;5.10;4.60;;;9.50;96.30;;;;;;4975303;28;20410;-73
2022/04/23 19:35:39;;;;;;;16.60;6.17;;;9.40;96.30;;;;;;4973031;28;20226;-72
2022/04/23 19:38:05;;;;;;;6.00;5.37;;;9.30;96.30;;;;;;4955089;29;20213;-73
2022/04/23 19:40:31;;;;;;;5.80;5.13;;;9.10;96.30;;;;;;4955879;29;20205;-75
2022/04/23 19:42:56;;;;;;;6.03;5.43;;;8.90;96.30;;;;;;4956007;29;20254;-73
2022/04/23 19:45:22;;;;;;;8.67;4.87;;;8.70;96.30;;;;;;4938919;29;20647;-73
2022/04/23 19:47:48;;;;;;;5.40;4.90;;;8.50;96.30;;;;;;4955917;29;20592;-73
2022/04/23 19:50:14;;;;;;;6.23;5.43;;;8.40;96.30;;;;;;4956109;29;20266;-73
2022/04/23 19:52:39;;;;;;;8.33;5.20;;;8.30;96.30;;;;;;4955894;29;20596;-75
2022/04/23 19:55:11;;;;;;;7.17;6.00;;;8.10;96.30;;;;;;4955801;29;20230;-73
2022/04/23 19:57:37;;;;;;;7.20;5.37;;;7.90;96.30;;;;;;4940233;28;20559;-73
2022/04/23 20:00:04;;;;;;;6.83;5.70;;;7.70;96.30;;;;;;4951318;28;20429;-73
2022/04/23 20:02:30;;;;;;;6.33;5.73;;;7.60;96.30;;;;;;4964776;28;20445;-73
2022/04/23 20:04:55;;;;;;;9.60;5.00;;;7.60;96.30;;;;;;4962889;28;20797;-73
2022/04/23 20:07:21;;;;;;;8.73;5.13;;;7.60;96.30;;;;;;4962506;28;20202;-73
2022/04/23 20:09:47;;;;;;;5.67;5.07;;;7.50;96.30;;;;;;4945324;28;20273;-73
2022/04/23 20:12:12;;;;;;;4.93;4.50;;;7.40;96.30;;;;;;4964485;28;20544;-73
2022/04/23 20:14:38;;;;;;;5.70;4.63;;;7.30;96.30;;;;;;4966873;28;20189;-73
2022/04/23 20:17:05;;;;;;;5.03;4.40;;;7.30;96.30;;;;;;4965890;28;20175;-73
2022/04/23 20:19:33;;;;;;;6.17;5.03;;;7.30;96.30;;;;;;4964332;28;20261;-73
2022/04/23 20:21:59;;;;;;;5.67;5.10;;;7.30;96.30;;;;;;4963322;28;20434;-73
2022/04/23 20:24:25;;;;;;;6.60;4.30;;;;;;;;;;4964959;28;20428;-73
2022/04/23 20:26:51;;;;;;;5.90;4.90;;;7.30;96.30;;;;;;4960364;28;20780;-73
2022/04/23 20:29:22;;;;;;;6.13;5.17;;;7.40;96.30;;;;;;4944664;28;20463;-75
2022/04/23 20:31:48;;;;;;;4.97;4.47;;;7.50;96.30;;;;;;4962306;28;20560;-73
2022/04/23 20:34:15;;;;;;;5.33;4.60;;;7.70;96.30;;;;;;4950120;28;20428;-72